This is the latest recevied weather packets stored in our database for station/object KJ4UBX-11. If no packets are shown the sender has not sent any weather packets the latest 10 day(s).
| Time | Temp. | Humidity | Pressure | Rain* | Wind** | Luminosity | Snow |
|---|---|---|---|---|---|---|---|
| 1778169193 | 28.89° C | 31% | 1004.2 hPa | - | - | - | - |
| 1778168624 | 35.56° C | 22% | 1004.1 hPa | - | - | - | - |
| 1778168044 | 36.67° C | 20% | 1004.3 hPa | - | - | - | - |
| 1778167462 | 40.56° C | 19% | 1004.3 hPa | - | - | - | - |
| 1778166880 | 38.89° C | 18% | 1004.3 hPa | - | - | - | - |
| 1778166297 | 38.33° C | 19% | 1004.3 hPa | - | - | - | - |
| 1778165709 | 37.22° C | 19% | 1004.3 hPa | - | - | - | - |
| 1778165125 | 38.33° C | 19% | 1004.4 hPa | - | - | - | - |
| 1778164543 | 39.44° C | 18% | 1004.4 hPa | - | - | - | - |
| 1778163957 | 38.33° C | 19% | 1004.7 hPa | - | - | - | - |
| 1778163379 | 39.44° C | 19% | 1004.9 hPa | - | - | - | - |
| 1778162792 | 36.67° C | 20% | 1004.9 hPa | - | - | - | - |
| 1778162207 | 37.22° C | 19% | 1004.8 hPa | - | - | - | - |
| 1778161623 | 36.67° C | 20% | 1005 hPa | - | - | - | - |
| 1778161041 | 35.56° C | 20% | 1005 hPa | - | - | - | - |
| 1778160455 | 35.56° C | 22% | 1005 hPa | - | - | - | - |
| 1778159877 | 35.56° C | 23% | 1005 hPa | - | - | - | - |
| 1778159288 | 33.89° C | 22% | 1005 hPa | - | - | - | - |
| 1778158704 | 33.89° C | 27% | 1005 hPa | - | - | - | - |
| 1778158113 | 30° C | 28% | 1005.2 hPa | - | - | - | - |
| 1778157528 | 27.78° C | 30% | 1005.3 hPa | - | - | - | - |
| 1778156944 | 28.33° C | 32% | 1005.2 hPa | - | - | - | - |
| 1778156353 | 27.22° C | 32% | 1005.1 hPa | - | - | - | - |
| 1778155762 | 23.33° C | 40% | 1005 hPa | - | - | - | - |
| 1778155172 | 17.22° C | 50% | 1005.3 hPa | - | - | - | - |
* Rain since midnight (hover to see other rain measurements)
** Current wind speed in m/s (hover to see current wind gust speed)